createdAt,value
2019-05-18T00:03:18.526Z,71.73
2019-05-18T00:08:22.762Z,72.01
2019-05-18T00:13:27.115Z,72.31
2019-05-18T00:18:31.377Z,72.52
2019-05-18T00:23:35.633Z,72.67
2019-05-18T00:28:39.891Z,72.96
2019-05-18T00:33:44.122Z,73.14
2019-05-18T00:38:48.614Z,73.33
2019-05-18T00:43:52.882Z,73.73
2019-05-18T00:48:57.164Z,73.88
2019-05-18T00:54:01.435Z,74.16
2019-05-18T00:59:05.695Z,74.45
2019-05-18T01:04:09.946Z,74.63
2019-05-18T01:09:14.187Z,74.97
2019-05-18T01:14:18.437Z,75.36
2019-05-18T01:19:22.705Z,75.65
2019-05-18T01:24:26.945Z,75.75
2019-05-18T01:29:31.181Z,75.95
2019-05-18T01:34:35.438Z,76.23
2019-05-18T01:39:39.818Z,76.23
2019-05-18T01:44:44.067Z,76.61
2019-05-18T01:49:48.339Z,76.76
2019-05-18T01:54:52.595Z,76.93
2019-05-18T01:59:56.840Z,77.21
2019-05-18T02:05:01.091Z,77.23
2019-05-18T02:10:06.170Z,77.49
2019-05-18T02:15:10.850Z,77.64
2019-05-18T02:20:15.302Z,77.76
2019-05-18T02:25:19.846Z,78.02
2019-05-18T02:30:24.101Z,77.99
2019-05-18T02:35:28.350Z,78.34
2019-05-18T02:40:32.592Z,78.38
2019-05-18T02:45:36.864Z,78.49
2019-05-18T02:50:41.148Z,78.75
2019-05-18T02:55:45.414Z,78.77
2019-05-18T03:00:49.674Z,79.03
2019-05-18T03:05:53.933Z,79.27
2019-05-18T03:10:58.208Z,79.48
2019-05-18T03:16:02.646Z,79.58
2019-05-18T03:21:06.883Z,79.67
2019-05-18T03:26:11.164Z,79.62
2019-05-18T03:31:15.407Z,79.84
2019-05-18T03:36:19.615Z,79.87
2019-05-18T03:41:23.858Z,79.91
2019-05-18T03:46:28.111Z,79.80
2019-05-18T03:51:32.400Z,80.07
2019-05-18T03:56:36.629Z,80.02
2019-05-18T04:01:40.895Z,79.87
2019-05-18T04:06:45.151Z,79.92
2019-05-18T04:11:49.447Z,79.73
2019-05-18T04:16:57.714Z,79.31
2019-05-18T04:22:01.964Z,79.55
2019-05-18T04:27:06.187Z,79.40
2019-05-18T04:32:10.447Z,79.28
2019-05-18T04:37:14.693Z,79.14
2019-05-18T04:42:18.947Z,78.79
2019-05-18T04:47:23.180Z,78.76
2019-05-18T04:52:27.741Z,78.97
2019-05-18T04:57:31.986Z,79.15
2019-05-18T05:02:36.243Z,79.28
2019-05-18T05:07:40.503Z,79.06
2019-05-18T05:12:44.870Z,78.48
2019-05-18T05:17:49.075Z,78.31
2019-05-18T05:22:53.328Z,77.25
2019-05-18T05:27:57.599Z,76.60
2019-05-18T05:33:01.843Z,75.76
2019-05-18T05:38:06.185Z,75.02
2019-05-18T05:43:10.479Z,74.13
2019-05-18T05:48:14.718Z,73.44
2019-05-18T05:53:19.010Z,72.66
2019-05-18T05:58:23.265Z,71.64
2019-05-18T06:03:27.515Z,70.82
2019-05-18T06:08:31.798Z,69.45
2019-05-18T06:13:36.067Z,68.62
2019-05-18T06:18:40.969Z,67.55
2019-05-18T06:23:45.214Z,66.73
2019-05-18T06:28:49.459Z,65.85
2019-05-18T06:33:53.720Z,64.58
2019-05-18T06:38:57.969Z,62.26
2019-05-18T06:44:02.242Z,59.96
2019-05-18T06:49:06.493Z,59.94
2019-05-18T06:54:10.723Z,56.75
2019-05-18T06:59:16.555Z,57.07
2019-05-18T07:04:20.832Z,56.74
2019-05-18T07:09:25.113Z,55.71
2019-05-18T07:14:29.373Z,54.60
2019-05-18T07:19:33.636Z,55.41
2019-05-18T07:24:37.912Z,55.54
2019-05-18T07:29:42.177Z,54.55
2019-05-18T07:34:46.423Z,54.31
2019-05-18T07:39:50.757Z,53.94
2019-05-18T07:44:55.033Z,53.38
2019-05-18T07:49:59.305Z,52.39
2019-05-18T07:55:03.731Z,52.86
2019-05-18T08:00:08.701Z,52.46
2019-05-18T08:05:12.975Z,52.53
2019-05-18T08:10:22.792Z,51.67
2019-05-18T08:15:27.038Z,51.60
2019-05-18T08:20:31.290Z,51.13
2019-05-18T08:25:35.507Z,51.20
2019-05-18T08:30:39.773Z,51.20
2019-05-18T08:35:45.127Z,50.35
2019-05-18T08:40:49.380Z,50.35
2019-05-18T08:45:53.633Z,49.06
2019-05-18T08:50:57.903Z,48.73
2019-05-18T08:56:02.164Z,49.33
2019-05-18T09:01:06.410Z,52.87
2019-05-18T09:06:10.779Z,49.69
2019-05-18T09:11:15.038Z,47.29
2019-05-18T09:16:19.330Z,48.02
2019-05-18T09:21:23.592Z,46.93
2019-05-18T09:26:27.864Z,47.10
2019-05-18T09:31:32.161Z,46.47
2019-05-18T09:36:36.406Z,45.90
2019-05-18T09:41:40.644Z,46.74
2019-05-18T09:46:44.886Z,45.93
2019-05-18T09:51:49.136Z,45.89
2019-05-18T09:56:53.378Z,44.92
2019-05-18T10:01:57.822Z,44.70
2019-05-18T10:07:02.079Z,44.15
2019-05-18T10:12:06.324Z,44.64
2019-05-18T10:17:10.580Z,44.65
2019-05-18T10:22:14.809Z,42.59
2019-05-18T10:27:19.065Z,42.10
2019-05-18T10:32:23.412Z,41.80
2019-05-18T10:37:27.652Z,40.99
2019-05-18T10:42:31.906Z,40.06
2019-05-18T10:47:36.144Z,39.63
2019-05-18T10:52:40.400Z,39.45
2019-05-18T10:57:44.769Z,39.67
2019-05-18T11:02:48.991Z,39.04
2019-05-18T11:07:53.241Z,37.00
2019-05-18T11:12:57.477Z,38.16
2019-05-18T11:18:01.719Z,38.32
2019-05-18T11:23:06.030Z,37.70
2019-05-18T11:28:10.268Z,36.45
2019-05-18T11:33:14.553Z,37.83
2019-05-18T11:38:18.797Z,34.93
2019-05-18T11:43:23.074Z,35.13
2019-05-18T11:48:27.299Z,35.43
2019-05-18T11:53:31.556Z,35.26
2019-05-18T11:58:35.803Z,34.45
2019-05-18T12:03:40.075Z,35.24
2019-05-18T12:08:44.332Z,32.08
2019-05-18T12:13:48.567Z,29.81
2019-05-18T12:18:52.806Z,30.76
2019-05-18T12:23:57.068Z,31.61
2019-05-18T12:29:01.323Z,30.18
2019-05-18T12:34:05.699Z,30.65
2019-05-18T12:39:09.981Z,28.56
2019-05-18T12:44:14.239Z,26.25
2019-05-18T12:49:18.486Z,27.11
2019-05-18T12:54:30.869Z,28.54
2019-05-18T12:59:28.686Z,25.52
2019-05-18T13:04:32.944Z,23.10
2019-05-18T13:09:37.192Z,22.54
2019-05-18T13:14:41.433Z,23.20
2019-05-18T13:19:45.684Z,21.93
2019-05-18T13:24:52.307Z,23.46
2019-05-18T13:29:56.360Z,22.07
2019-05-18T13:35:00.621Z,21.06
2019-05-18T13:40:04.986Z,20.34
2019-05-18T13:45:10.225Z,19.82
2019-05-18T13:50:15.180Z,20.47
2019-05-18T13:55:20.272Z,19.83
2019-05-18T14:00:24.654Z,19.12
2019-05-18T14:05:28.909Z,20.20
2019-05-18T14:10:33.174Z,17.90
2019-05-18T14:15:37.410Z,18.51
2019-05-18T14:20:41.643Z,19.23
2019-05-18T14:25:46.267Z,18.55
2019-05-18T14:30:50.593Z,21.78
2019-05-18T14:35:55.016Z,21.89
2019-05-18T14:40:59.262Z,21.46
2019-05-18T14:46:03.515Z,20.38
2019-05-18T14:51:07.908Z,19.38
2019-05-18T14:56:12.121Z,19.12
2019-05-18T15:01:16.368Z,17.69
2019-05-18T15:06:20.607Z,17.34
2019-05-18T15:11:24.874Z,19.93
2019-05-18T15:16:29.119Z,19.49
2019-05-18T15:21:33.357Z,19.20
2019-05-18T15:26:37.614Z,18.63
2019-05-18T15:31:41.862Z,20.28
2019-05-18T15:36:46.094Z,19.43
2019-05-18T15:41:50.328Z,18.55
2019-05-18T15:46:54.587Z,17.09
2019-05-18T15:51:58.813Z,17.65
2019-05-18T15:57:03.051Z,17.40
2019-05-18T16:02:07.488Z,17.83
2019-05-18T16:07:11.717Z,19.42
2019-05-18T16:12:15.958Z,18.39
2019-05-18T16:17:20.249Z,18.58
2019-05-18T16:22:24.507Z,17.82
2019-05-18T16:27:28.828Z,17.86
2019-05-18T16:32:33.050Z,19.46
2019-05-18T16:37:37.311Z,21.66
2019-05-18T16:42:41.602Z,22.96
2019-05-18T16:47:45.895Z,23.87
2019-05-18T16:52:50.102Z,24.49
2019-05-18T16:57:54.349Z,24.42
2019-05-18T17:02:58.626Z,25.10
2019-05-18T17:08:02.864Z,25.98
2019-05-18T17:13:07.097Z,26.11
2019-05-18T17:18:11.336Z,26.51
2019-05-18T17:23:15.886Z,26.20
2019-05-18T17:28:20.142Z,26.87
2019-05-18T17:33:24.413Z,27.59
2019-05-18T17:38:28.644Z,30.38
2019-05-18T17:43:32.911Z,29.18
2019-05-18T17:48:37.174Z,30.57
2019-05-18T17:53:41.413Z,28.17
2019-05-18T17:58:45.697Z,28.47
2019-05-18T18:03:49.931Z,29.25
2019-05-18T18:08:54.316Z,29.21
2019-05-18T18:13:58.580Z,29.68
2019-05-18T18:19:02.847Z,30.02
2019-05-18T18:24:07.239Z,31.28
2019-05-18T18:29:12.242Z,32.13
2019-05-18T18:34:16.624Z,32.20
2019-05-18T18:39:22.763Z,33.10
2019-05-18T18:44:27.082Z,33.53
2019-05-18T18:49:31.591Z,34.08
2019-05-18T18:54:36.005Z,34.21
2019-05-18T18:59:41.062Z,34.80
2019-05-18T19:04:45.311Z,34.93
2019-05-18T19:09:51.605Z,35.69
2019-05-18T19:14:55.873Z,36.48
2019-05-18T19:20:00.233Z,37.06
2019-05-18T19:25:05.342Z,37.97
2019-05-18T19:30:10.364Z,37.75
2019-05-18T19:35:14.853Z,38.50
2019-05-18T19:40:19.400Z,39.30
2019-05-18T19:45:23.675Z,39.71
2019-05-18T19:50:27.945Z,39.82
2019-05-18T19:55:32.193Z,40.61
2019-05-18T20:00:36.440Z,40.78
2019-05-18T20:05:40.696Z,41.12
2019-05-18T20:10:45.117Z,41.87
2019-05-18T20:15:49.427Z,45.25
2019-05-18T20:20:53.684Z,41.68
2019-05-18T20:25:57.935Z,41.64
2019-05-18T20:31:02.484Z,42.43
2019-05-18T20:36:06.903Z,42.26
2019-05-18T20:41:11.170Z,43.15
2019-05-18T20:46:15.456Z,44.14
2019-05-18T20:51:19.726Z,44.17
2019-05-18T20:56:24.012Z,44.74
2019-05-18T21:01:28.351Z,45.20
2019-05-18T21:06:32.617Z,45.42
2019-05-18T21:11:36.871Z,45.74
2019-05-18T21:16:41.114Z,46.04
2019-05-18T21:21:46.419Z,46.20
2019-05-18T21:26:50.684Z,46.38
2019-05-18T21:31:54.936Z,46.99
2019-05-18T21:36:59.295Z,47.15
2019-05-18T21:42:03.606Z,47.08
2019-05-18T21:47:07.888Z,47.20
2019-05-18T21:52:12.180Z,47.78
2019-05-18T21:57:16.460Z,48.31
2019-05-18T22:02:20.734Z,49.11
2019-05-18T22:07:24.988Z,49.42
2019-05-18T22:12:29.267Z,49.05
2019-05-18T22:17:36.463Z,50.22
2019-05-18T22:22:40.715Z,50.64
2019-05-18T22:27:44.970Z,51.18
2019-05-18T22:32:49.229Z,50.42
2019-05-18T22:37:53.588Z,50.74
2019-05-18T22:42:57.824Z,51.19
2019-05-18T22:48:02.153Z,50.94
2019-05-18T22:53:06.399Z,50.75
2019-05-18T22:58:10.660Z,50.61
2019-05-18T23:03:14.922Z,50.55
2019-05-18T23:08:19.189Z,50.41
2019-05-18T23:13:23.452Z,50.41
2019-05-18T23:18:27.714Z,51.62
2019-05-18T23:23:31.961Z,51.51
2019-05-18T23:28:36.217Z,51.19
2019-05-18T23:33:40.478Z,51.99
2019-05-18T23:38:44.779Z,52.75
2019-05-18T23:43:49.028Z,52.72
2019-05-18T23:48:53.305Z,53.07
2019-05-18T23:53:57.586Z,53.19
2019-05-18T23:59:01.845Z,53.58
